Gustine, Texas
Current Conditions -  °F | °C
As of 1:15 PM on Thursday 30 Oct 2014 (Local Time) from KMKN Reporting Station
Clear Clear  
Wind Chill: 78°   Ceiling: Unl
Heat Index: 79°   Visibility: 10mi
Dew Point: 63°   Wind: 6mph
Humidity: 61%   Direction: 220°SW
Pressure: 30.13"   Gusts: NA
Location:  31.85°N, 98.4°W
Report Text: KMKN 301815Z AUTO 22005KT 10SM CLR 25/17 A3013 RMK AO2 T02540174
Loading
Personal Weather Stations






























Interactive Weather Map
Tropical Storm Tracking
New forecast layout! Learn more

10-Day Weather Forecast

Advertisements
Track Severe Weather on mobile